Rechercher aéroport 
image banner adimage banner adimage banner ad
image banner ad

53CA - Hummingbird Nest

Situé à Simi Valley, United States

ICAO - 53CA, IATA -

Données fournies par Airmate  

Information générale

Coordonnées: N34°16'55" W118°39'18"
Élévation : 1411 feet MSL.
 
Voir autres Aéroports à California

Données opérationnelles

Special qualification required
Heure actuelle UTC:
Heure actuelle locale:
Météo à : KVNY - Van Nuys ( 17 km )
METAR: KVNY 020451Z 27004KT 10SM CLR 27/08 A3002 RMK AO2 SLP155 T02720083
TAF: KVNY 012348Z 0200/0224 30008KT P6SM SKC FM020400 VRB03KT P6SM SKC FM022100 14009KT P6SM SKC
Voir NOTAMs / SUP AIP / TFR affectant cet aéroport [VIEW]
Fréquences de communication: [VIEW]

Pistes:

Coordonnées de l'aéroport

Adresse: Simi Valley United States

Vue satellite de 53CA